sensor_id;sensor_type;location;lat;lon;timestamp;pressure;altitude;pressure_sealevel;temperature;humidity
11692;BME280;33659;42.672;23.354;2023-10-08T00:01:42;68720.56;;;16.20;42.96
11692;BME280;33659;42.672;23.354;2023-10-08T00:04:10;68684.81;;;15.89;43.63
11692;BME280;33659;42.672;23.354;2023-10-08T00:06:37;68706.00;;;16.09;43.99
11692;BME280;33659;42.672;23.354;2023-10-08T00:09:04;68709.28;;;16.12;44.06
11692;BME280;33659;42.672;23.354;2023-10-08T00:11:37;68713.50;;;16.13;43.99
11692;BME280;33659;42.672;23.354;2023-10-08T00:14:07;68703.75;;;16.04;44.00
11692;BME280;33659;42.672;23.354;2023-10-08T00:16:36;68688.50;;;15.90;44.18
11692;BME280;33659;42.672;23.354;2023-10-08T00:19:06;68661.78;;;15.62;43.38
11692;BME280;33659;42.672;23.354;2023-10-08T00:21:38;68635.81;;;15.40;44.28
11692;BME280;33659;42.672;23.354;2023-10-08T00:24:05;68661.91;;;15.65;44.23
11692;BME280;33659;42.672;23.354;2023-10-08T00:26:33;68672.22;;;15.75;44.71
11692;BME280;33659;42.672;23.354;2023-10-08T00:29:08;68682.00;;;15.84;45.25
11692;BME280;33659;42.672;23.354;2023-10-08T00:31:42;68674.84;;;15.75;44.67
11692;BME280;33659;42.672;23.354;2023-10-08T00:34:10;68662.00;;;15.67;45.10
11692;BME280;33659;42.672;23.354;2023-10-08T00:36:39;68645.59;;;15.50;45.83
11692;BME280;33659;42.672;23.354;2023-10-08T00:39:07;68645.50;;;15.47;46.15
11692;BME280;33659;42.672;23.354;2023-10-08T00:41:40;68643.97;;;15.48;46.35
11692;BME280;33659;42.672;23.354;2023-10-08T00:44:10;68646.78;;;15.53;46.08
11692;BME280;33659;42.672;23.354;2023-10-08T00:46:41;68646.66;;;15.51;46.27
11692;BME280;33659;42.672;23.354;2023-10-08T00:49:13;68654.94;;;15.61;45.96
11692;BME280;33659;42.672;23.354;2023-10-08T00:51:51;68660.38;;;15.66;45.66
11692;BME280;33659;42.672;23.354;2023-10-08T00:54:36;68653.72;;;15.57;45.40
11692;BME280;33659;42.672;23.354;2023-10-08T00:57:15;68671.69;;;15.74;45.27
11692;BME280;33659;42.672;23.354;2023-10-08T00:59:47;68658.09;;;15.61;45.28
11692;BME280;33659;42.672;23.354;2023-10-08T01:02:19;68659.72;;;15.63;45.39
11692;BME280;33659;42.672;23.354;2023-10-08T01:04:49;68662.44;;;15.65;45.08
11692;BME280;33659;42.672;23.354;2023-10-08T01:07:18;68667.31;;;15.70;44.91
11692;BME280;33659;42.672;23.354;2023-10-08T01:09:45;68661.47;;;15.67;44.93
11692;BME280;33659;42.672;23.354;2023-10-08T01:12:18;68657.00;;;15.60;45.35
11692;BME280;33659;42.672;23.354;2023-10-08T01:14:50;68655.47;;;15.61;45.38
11692;BME280;33659;42.672;23.354;2023-10-08T01:17:20;68659.72;;;15.63;45.25
11692;BME280;33659;42.672;23.354;2023-10-08T01:19:50;68651.13;;;15.57;44.99
11692;BME280;33659;42.672;23.354;2023-10-08T01:22:23;68659.19;;;15.62;44.46
11692;BME280;33659;42.672;23.354;2023-10-08T01:24:54;68660.25;;;15.63;44.23
11692;BME280;33659;42.672;23.354;2023-10-08T01:27:21;68660.25;;;15.63;44.00
11692;BME280;33659;42.672;23.354;2023-10-08T01:29:50;68666.78;;;15.69;44.00
11692;BME280;33659;42.672;23.354;2023-10-08T01:32:17;68666.91;;;15.72;43.80
11692;BME280;33659;42.672;23.354;2023-10-08T01:34:44;68672.66;;;15.73;43.81
11692;BME280;33659;42.672;23.354;2023-10-08T01:37:13;68674.38;;;15.77;43.71
11692;BME280;33659;42.672;23.354;2023-10-08T01:39:43;68678.75;;;15.81;43.67
11692;BME280;33659;42.672;23.354;2023-10-08T01:42:11;68672.13;;;15.72;44.24
11692;BME280;33659;42.672;23.354;2023-10-08T01:44:43;68664.63;;;15.67;44.63
11692;BME280;33659;42.672;23.354;2023-10-08T01:47:12;68672.66;;;15.73;44.54
11692;BME280;33659;42.672;23.354;2023-10-08T01:49:39;68666.78;;;15.69;44.95
11692;BME280;33659;42.672;23.354;2023-10-08T01:52:08;68659.72;;;15.63;44.70
11692;BME280;33659;42.672;23.354;2023-10-08T01:54:39;68650.56;;;15.57;44.63
11692;BME280;33659;42.672;23.354;2023-10-08T01:57:07;68653.19;;;15.57;44.75
11692;BME280;33659;42.672;23.354;2023-10-08T01:59:35;68643.97;;;15.48;44.37
11692;BME280;33659;42.672;23.354;2023-10-08T02:02:03;68643.97;;;15.48;44.07
11692;BME280;33659;42.672;23.354;2023-10-08T02:04:31;68640.25;;;15.47;44.13
11692;BME280;33659;42.672;23.354;2023-10-08T02:07:01;68642.34;;;15.47;43.57
11692;BME280;33659;42.672;23.354;2023-10-08T02:09:29;68642.88;;;15.47;43.89
11692;BME280;33659;42.672;23.354;2023-10-08T02:11:56;68629.28;;;15.34;44.51
11692;BME280;33659;42.672;23.354;2023-10-08T02:14:25;68627.22;;;15.35;44.64
11692;BME280;33659;42.672;23.354;2023-10-08T02:16:55;68609.19;;;15.15;45.40
11692;BME280;33659;42.672;23.354;2023-10-08T02:19:24;68590.75;;;14.98;45.82
11692;BME280;33659;42.672;23.354;2023-10-08T02:21:53;68589.56;;;14.95;46.09
11692;BME280;33659;42.672;23.354;2023-10-08T02:24:21;68583.69;;;14.92;46.04
11692;BME280;33659;42.672;23.354;2023-10-08T02:26:50;68575.53;;;14.84;45.93
11692;BME280;33659;42.672;23.354;2023-10-08T02:29:17;68494.78;;;14.74;46.10
11692;BME280;33659;42.672;23.354;2023-10-08T02:31:45;68523.41;;;14.35;46.94
11692;BME280;33659;42.672;23.354;2023-10-08T02:34:12;68553.81;;;14.63;46.90
11692;BME280;33659;42.672;23.354;2023-10-08T02:36:39;68561.44;;;14.71;46.51
11692;BME280;33659;42.672;23.354;2023-10-08T02:39:07;68581.59;;;14.92;46.52
11692;BME280;33659;42.672;23.354;2023-10-08T02:41:39;68587.50;;;14.95;45.93
11692;BME280;33659;42.672;23.354;2023-10-08T02:44:07;68597.69;;;15.02;45.56
11692;BME280;33659;42.672;23.354;2023-10-08T02:46:38;68592.38;;;15.00;45.33
11692;BME280;33659;42.672;23.354;2023-10-08T02:49:08;68574.00;;;14.85;45.76
11692;BME280;33659;42.672;23.354;2023-10-08T02:51:37;68569.03;;;14.78;46.19
11692;BME280;33659;42.672;23.354;2023-10-08T02:54:05;68570.09;;;14.79;46.08
11692;BME280;33659;42.672;23.354;2023-10-08T02:56:33;68573.91;;;14.82;46.23
11692;BME280;33659;42.672;23.354;2023-10-08T02:59:00;68579.88;;;14.88;45.98
11692;BME280;33659;42.672;23.354;2023-10-08T03:01:28;68580.53;;;14.91;46.06
11692;BME280;33659;42.672;23.354;2023-10-08T03:03:59;68589.22;;;14.99;45.92
11692;BME280;33659;42.672;23.354;2023-10-08T03:06:36;68590.28;;;15.00;45.80
11692;BME280;33659;42.672;23.354;2023-10-08T03:09:04;68591.41;;;15.01;45.87
11692;BME280;33659;42.672;23.354;2023-10-08T03:11:30;68589.22;;;14.99;45.83
11692;BME280;33659;42.672;23.354;2023-10-08T03:13:57;68592.38;;;15.00;45.74
11692;BME280;33659;42.672;23.354;2023-10-08T03:16:25;68575.53;;;14.84;45.82
11692;BME280;33659;42.672;23.354;2023-10-08T03:18:54;68577.81;;;14.88;46.09
11692;BME280;33659;42.672;23.354;2023-10-08T03:21:22;68580.97;;;14.89;46.10
11692;BME280;33659;42.672;23.354;2023-10-08T03:24:10;68579.88;;;14.88;46.34
11692;BME280;33659;42.672;23.354;2023-10-08T03:26:49;68575.00;;;14.83;46.52
11692;BME280;33659;42.672;23.354;2023-10-08T03:29:21;68563.72;;;14.75;46.49
11692;BME280;33659;42.672;23.354;2023-10-08T03:31:55;68591.94;;;15.02;46.27
11692;BME280;33659;42.672;23.354;2023-10-08T03:34:23;68597.91;;;15.07;46.04
11692;BME280;33659;42.672;23.354;2023-10-08T03:36:54;68597.34;;;15.07;46.25
11692;BME280;33659;42.672;23.354;2023-10-08T03:39:32;68592.91;;;15.00;46.83
11692;BME280;33659;42.672;23.354;2023-10-08T03:42:19;68597.34;;;15.07;47.14
11692;BME280;33659;42.672;23.354;2023-10-08T03:44:48;68595.63;;;15.03;47.04
11692;BME280;33659;42.672;23.354;2023-10-08T03:47:17;68599.41;;;15.06;46.84
11692;BME280;33659;42.672;23.354;2023-10-08T03:49:45;68594.00;;;15.01;47.23
11692;BME280;33659;42.672;23.354;2023-10-08T03:52:12;68582.06;;;14.90;48.04
11692;BME280;33659;42.672;23.354;2023-10-08T03:54:40;68578.38;;;14.89;48.37
11692;BME280;33659;42.672;23.354;2023-10-08T03:57:14;68572.28;;;14.81;48.31
11692;BME280;33659;42.672;23.354;2023-10-08T03:59:45;68562.06;;;14.74;48.83
11692;BME280;33659;42.672;23.354;2023-10-08T04:02:14;68558.16;;;14.68;49.18
11692;BME280;33659;42.672;23.354;2023-10-08T04:04:48;68562.94;;;14.70;48.86
11692;BME280;33659;42.672;23.354;2023-10-08T04:07:19;68549.59;;;14.62;48.37
11692;BME280;33659;42.672;23.354;2023-10-08T04:09:56;68524.06;;;14.38;49.33
11692;BME280;33659;42.672;23.354;2023-10-08T04:12:51;68495.84;;;14.12;49.76
11692;BME280;33659;42.672;23.354;2023-10-08T04:15:19;68485.44;;;13.99;49.76
11692;BME280;33659;42.672;23.354;2023-10-08T04:17:46;68489.22;;;14.03;50.28
11692;BME280;33659;42.672;23.354;2023-10-08T04:20:16;68491.94;;;14.05;50.51
11692;BME280;33659;42.672;23.354;2023-10-08T04:22:58;68503.88;;;14.17;50.32
11692;BME280;33659;42.672;23.354;2023-10-08T04:25:27;68506.69;;;14.22;50.75
11692;BME280;33659;42.672;23.354;2023-10-08T04:27:54;68505.50;;;14.18;50.32
11692;BME280;33659;42.672;23.354;2023-10-08T04:30:24;68522.75;;;14.32;50.36
11692;BME280;33659;42.672;23.354;2023-10-08T04:32:58;68531.00;;;14.42;50.54
11692;BME280;33659;42.672;23.354;2023-10-08T04:35:25;68528.28;;;14.40;50.62
11692;BME280;33659;42.672;23.354;2023-10-08T04:37:52;68535.78;;;14.44;50.63
11692;BME280;33659;42.672;23.354;2023-10-08T04:40:20;68522.97;;;14.37;51.27
11692;BME280;33659;42.672;23.354;2023-10-08T04:42:50;68520.78;;;14.35;51.51
11692;BME280;33659;42.672;23.354;2023-10-08T04:45:20;68528.84;;;14.40;50.94
11692;BME280;33659;42.672;23.354;2023-10-08T04:47:51;68538.19;;;14.51;50.91
11692;BME280;33659;42.672;23.354;2023-10-08T04:50:19;68535.91;;;14.47;51.08
11692;BME280;33659;42.672;23.354;2023-10-08T04:52:47;68523.41;;;14.35;51.36
11692;BME280;33659;42.672;23.354;2023-10-08T04:55:23;68529.91;;;14.41;51.20
11692;BME280;33659;42.672;23.354;2023-10-08T04:57:55;68531.13;;;14.45;51.21
11692;BME280;33659;42.672;23.354;2023-10-08T05:00:22;68534.94;;;14.48;51.14
11692;BME280;33659;42.672;23.354;2023-10-08T05:03:07;68534.16;;;14.43;50.38
11692;BME280;33659;42.672;23.354;2023-10-08T05:05:39;68522.31;;;14.34;51.39
11692;BME280;33659;42.672;23.354;2023-10-08T05:08:20;68524.59;;;14.39;50.91
11692;BME280;33659;42.672;23.354;2023-10-08T05:10:58;68535.38;;;14.46;50.01
11692;BME280;33659;42.672;23.354;2023-10-08T05:13:49;68534.72;;;14.43;49.96
11692;BME280;33659;42.672;23.354;2023-10-08T05:16:28;68523.53;;;14.38;50.76
11692;BME280;33659;42.672;23.354;2023-10-08T05:19:07;68519.06;;;14.31;50.47
11692;BME280;33659;42.672;23.354;2023-10-08T05:21:50;68513.19;;;14.28;50.87
11692;BME280;33659;42.672;23.354;2023-10-08T05:24:31;68519.06;;;14.31;50.99
11692;BME280;33659;42.672;23.354;2023-10-08T05:27:06;68527.75;;;14.39;50.90
11692;BME280;33659;42.672;23.354;2023-10-08T05:29:51;68541.88;;;14.52;50.43
11692;BME280;33659;42.672;23.354;2023-10-08T05:32:37;68553.81;;;14.63;50.00
11692;BME280;33659;42.672;23.354;2023-10-08T05:35:05;68565.75;;;14.75;49.66
11692;BME280;33659;42.672;23.354;2023-10-08T05:37:49;68576.09;;;14.84;49.37
11692;BME280;33659;42.672;23.354;2023-10-08T05:40:28;68590.75;;;14.98;49.09
11692;BME280;33659;42.672;23.354;2023-10-08T05:43:08;68602.69;;;15.09;48.33
11692;BME280;33659;42.672;23.354;2023-10-08T05:46:00;68605.28;;;15.09;48.41
11692;BME280;33659;42.672;23.354;2023-10-08T05:48:40;68606.47;;;15.13;47.64
11692;BME280;33659;42.672;23.354;2023-10-08T05:51:16;68592.47;;;15.02;47.99
11692;BME280;33659;42.672;23.354;2023-10-08T05:53:59;68591.94;;;15.02;47.30
11692;BME280;33659;42.672;23.354;2023-10-08T05:56:35;68592.38;;;15.00;47.83
11692;BME280;33659;42.672;23.354;2023-10-08T05:59:17;68601.59;;;15.08;47.94
11692;BME280;33659;42.672;23.354;2023-10-08T06:01:54;68608.22;;;15.17;47.90
11692;BME280;33659;42.672;23.354;2023-10-08T06:04:31;68617.88;;;15.24;48.08
11692;BME280;33659;42.672;23.354;2023-10-08T06:07:18;68626.16;;;15.34;47.97
11692;BME280;33659;42.672;23.354;2023-10-08T06:09:59;68633.75;;;15.41;47.97
11692;BME280;33659;42.672;23.354;2023-10-08T06:12:28;68643.97;;;15.48;47.65
11692;BME280;33659;42.672;23.354;2023-10-08T06:14:58;68637.97;;;15.42;47.80
11692;BME280;33659;42.672;23.354;2023-10-08T06:17:35;68638.53;;;15.43;47.64
11692;BME280;33659;42.672;23.354;2023-10-08T06:20:29;68627.69;;;15.33;47.97
11692;BME280;33659;42.672;23.354;2023-10-08T06:22:55;68640.16;;;15.44;48.53
11692;BME280;33659;42.672;23.354;2023-10-08T06:25:28;68653.72;;;15.57;47.90
11692;BME280;33659;42.672;23.354;2023-10-08T06:27:55;68666.69;;;15.67;47.31
11692;BME280;33659;42.672;23.354;2023-10-08T06:30:23;68667.44;;;15.73;47.40
11692;BME280;33659;42.672;23.354;2023-10-08T06:32:56;68682.00;;;15.84;47.38
11692;BME280;33659;42.672;23.354;2023-10-08T06:35:22;68696.03;;;15.94;47.08
11692;BME280;33659;42.672;23.354;2023-10-08T06:37:53;68703.75;;;16.04;46.91
11692;BME280;33659;42.672;23.354;2023-10-08T06:40:24;68714.06;;;16.14;46.57
11692;BME280;33659;42.672;23.354;2023-10-08T06:43:07;68727.53;;;16.24;45.91
11692;BME280;33659;42.672;23.354;2023-10-08T06:45:47;68722.19;;;16.21;46.40
11692;BME280;33659;42.672;23.354;2023-10-08T06:48:19;68659.84;;;16.32;45.97
11692;BME280;33659;42.672;23.354;2023-10-08T06:50:47;68739.59;;;16.38;45.83
11692;BME280;33659;42.672;23.354;2023-10-08T06:53:15;68751.56;;;16.49;45.77
11692;BME280;33659;42.672;23.354;2023-10-08T06:55:43;68761.34;;;16.58;45.55
11692;BME280;33659;42.672;23.354;2023-10-08T06:58:12;68773.19;;;16.67;44.97
11692;BME280;33659;42.672;23.354;2023-10-08T07:00:40;68779.84;;;16.75;44.81
11692;BME280;33659;42.672;23.354;2023-10-08T07:03:12;68788.63;;;16.86;45.40
11692;BME280;33659;42.672;23.354;2023-10-08T07:05:43;68769.50;;;16.66;44.95
11692;BME280;33659;42.672;23.354;2023-10-08T07:08:20;68815.06;;;17.06;44.96
11692;BME280;33659;42.672;23.354;2023-10-08T07:10:48;68824.88;;;17.15;44.91
11692;BME280;33659;42.672;23.354;2023-10-08T07:13:15;68833.47;;;17.21;44.33
11692;BME280;33659;42.672;23.354;2023-10-08T07:15:43;68830.31;;;17.20;44.84
11692;BME280;33659;42.672;23.354;2023-10-08T07:18:10;68833.13;;;17.25;45.63
11692;BME280;33659;42.672;23.354;2023-10-08T07:20:39;68768.91;;;17.31;44.41
11692;BME280;33659;42.672;23.354;2023-10-08T07:23:09;68848.78;;;17.38;44.20
11692;BME280;33659;42.672;23.354;2023-10-08T07:25:52;68852.69;;;17.44;44.25
11692;BME280;33659;42.672;23.354;2023-10-08T07:28:22;68857.50;;;17.46;44.28
11692;BME280;33659;42.672;23.354;2023-10-08T07:30:51;68874.44;;;17.64;44.05
11692;BME280;33659;42.672;23.354;2023-10-08T07:33:18;68880.88;;;17.68;43.37
11692;BME280;33659;42.672;23.354;2023-10-08T07:35:45;68892.88;;;17.79;42.91
11692;BME280;33659;42.672;23.354;2023-10-08T07:38:21;68884.72;;;17.71;43.47
11692;BME280;33659;42.672;23.354;2023-10-08T07:40:48;68884.81;;;17.74;43.83
11692;BME280;33659;42.672;23.354;2023-10-08T07:43:15;68885.91;;;17.75;43.62
11692;BME280;33659;42.672;23.354;2023-10-08T07:45:45;68890.81;;;17.79;44.16
11692;BME280;33659;42.672;23.354;2023-10-08T07:48:12;68831.97;;;17.91;43.59
11692;BME280;33659;42.672;23.354;2023-10-08T07:50:42;68914.66;;;17.99;43.62
11692;BME280;33659;42.672;23.354;2023-10-08T07:53:09;68915.81;;;18.03;43.28
11692;BME280;33659;42.672;23.354;2023-10-08T07:55:45;68926.25;;;18.15;43.40
11692;BME280;33659;42.672;23.354;2023-10-08T07:58:13;68927.25;;;18.13;43.62
11692;BME280;33659;42.672;23.354;2023-10-08T08:00:41;68942.41;;;18.25;43.68
11692;BME280;33659;42.672;23.354;2023-10-08T08:03:18;68955.47;;;18.37;43.19
11692;BME280;33659;42.672;23.354;2023-10-08T08:05:44;68962.00;;;18.44;42.90
11692;BME280;33659;42.672;23.354;2023-10-08T08:08:12;68971.78;;;18.53;42.83
11692;BME280;33659;42.672;23.354;2023-10-08T08:10:45;68968.63;;;18.52;43.00
11692;BME280;33659;42.672;23.354;2023-10-08T08:13:12;68950.66;;;18.35;43.20
11692;BME280;33659;42.672;23.354;2023-10-08T08:15:46;68983.31;;;18.66;43.27
11692;BME280;33659;42.672;23.354;2023-10-08T08:18:16;68994.75;;;18.77;42.61
11692;BME280;33659;42.672;23.354;2023-10-08T08:20:48;69002.84;;;18.82;42.56
11692;BME280;33659;42.672;23.354;2023-10-08T08:23:15;69008.84;;;18.87;42.19
11692;BME280;33659;42.672;23.354;2023-10-08T08:25:43;69010.00;;;18.91;42.33
11692;BME280;33659;42.672;23.354;2023-10-08T08:28:22;69017.53;;;18.96;42.16
11692;BME280;33659;42.672;23.354;2023-10-08T08:30:50;69014.25;;;18.92;42.16
11692;BME280;33659;42.672;23.354;2023-10-08T08:33:20;69036.06;;;19.13;41.52
11692;BME280;33659;42.672;23.354;2023-10-08T08:35:57;69045.31;;;19.21;41.28
11692;BME280;33659;42.672;23.354;2023-10-08T08:38:25;69057.38;;;19.35;40.49
11692;BME280;33659;42.672;23.354;2023-10-08T08:40:52;69070.38;;;19.45;38.50
11692;BME280;33659;42.672;23.354;2023-10-08T08:43:34;69081.78;;;19.56;36.79
11692;BME280;33659;42.672;23.354;2023-10-08T08:46:02;69097.06;;;19.70;36.18
11692;BME280;33659;42.672;23.354;2023-10-08T08:48:32;69108.50;;;19.81;34.71
11692;BME280;33659;42.672;23.354;2023-10-08T08:51:00;69111.78;;;19.84;34.42
11692;BME280;33659;42.672;23.354;2023-10-08T08:53:27;69131.47;;;20.05;33.64
11692;BME280;33659;42.672;23.354;2023-10-08T08:55:55;69152.19;;;20.24;33.37
11692;BME280;33659;42.672;23.354;2023-10-08T08:58:21;69100.06;;;20.39;33.42
11692;BME280;33659;42.672;23.354;2023-10-08T09:00:52;69179.91;;;20.47;33.23
11692;BME280;33659;42.672;23.354;2023-10-08T09:03:21;69200.59;;;20.67;33.83
11692;BME280;33659;42.672;23.354;2023-10-08T09:05:55;69188.09;;;20.55;33.47
11692;BME280;33659;42.672;23.354;2023-10-08T09:08:22;69219.69;;;20.85;32.97
11692;BME280;33659;42.672;23.354;2023-10-08T09:10:57;69230.06;;;20.94;32.98
11692;BME280;33659;42.672;23.354;2023-10-08T09:13:27;69169.25;;;21.04;33.08
11692;BME280;33659;42.672;23.354;2023-10-08T09:16:02;69243.16;;;21.06;32.35
11692;BME280;33659;42.672;23.354;2023-10-08T09:18:30;69173.50;;;21.05;32.49
11692;BME280;33659;42.672;23.354;2023-10-08T09:21:07;69255.59;;;21.16;32.62
11692;BME280;33659;42.672;23.354;2023-10-08T09:23:39;69271.97;;;21.31;32.49
11692;BME280;33659;42.672;23.354;2023-10-08T09:26:08;69272.06;;;21.33;32.53
11692;BME280;33659;42.672;23.354;2023-10-08T09:28:37;69293.34;;;21.53;32.21
11692;BME280;33659;42.672;23.354;2023-10-08T09:31:05;69310.78;;;21.70;31.75
11692;BME280;33659;42.672;23.354;2023-10-08T09:33:32;69240.06;;;21.70;31.48
11692;BME280;33659;42.672;23.354;2023-10-08T09:35:59;69252.53;;;21.79;31.43
11692;BME280;33659;42.672;23.354;2023-10-08T09:38:29;69245.53;;;21.75;31.53
11692;BME280;33659;42.672;23.354;2023-10-08T09:40:58;69316.25;;;21.75;31.36
11692;BME280;33659;42.672;23.354;2023-10-08T09:43:28;69249.91;;;21.79;31.36
11692;BME280;33659;42.672;23.354;2023-10-08T09:46:00;69275.97;;;22.01;31.49
11692;BME280;33659;42.672;23.354;2023-10-08T09:48:34;69368.00;;;22.21;30.84
11692;BME280;33659;42.672;23.354;2023-10-08T09:51:03;69376.81;;;22.31;30.87
11692;BME280;33659;42.672;23.354;2023-10-08T09:53:36;69398.56;;;22.49;30.94
11692;BME280;33659;42.672;23.354;2023-10-08T09:56:13;69416.03;;;22.65;30.54
11692;BME280;33659;42.672;23.354;2023-10-08T09:58:41;69356.13;;;22.76;30.03
11692;BME280;33659;42.672;23.354;2023-10-08T10:01:10;69323.50;;;22.48;30.27
11692;BME280;33659;42.672;23.354;2023-10-08T10:03:38;69311.97;;;22.35;30.66
11692;BME280;33659;42.672;23.354;2023-10-08T10:06:12;69292.88;;;22.17;30.70
11692;BME280;33659;42.672;23.354;2023-10-08T10:08:43;69362.09;;;22.17;30.85
11692;BME280;33659;42.672;23.354;2023-10-08T10:11:11;69366.44;;;22.22;31.00
11692;BME280;33659;42.672;23.354;2023-10-08T10:13:42;69295.59;;;22.20;30.70
11692;BME280;33659;42.672;23.354;2023-10-08T10:16:13;69367.00;;;22.22;31.28
11692;BME280;33659;42.672;23.354;2023-10-08T10:18:45;69377.38;;;22.32;30.83
11692;BME280;33659;42.672;23.354;2023-10-08T10:21:27;69317.56;;;22.45;30.76
11692;BME280;33659;42.672;23.354;2023-10-08T10:23:55;69379.47;;;22.31;30.75
11692;BME280;33659;42.672;23.354;2023-10-08T10:26:23;69365.31;;;22.82;30.60
11692;BME280;33659;42.672;23.354;2023-10-08T10:29:21;69403.59;;;23.20;29.68
11692;BME280;33659;42.672;23.354;2023-10-08T10:31:51;69502.31;;;23.46;29.53
11692;BME280;33659;42.672;23.354;2023-10-08T10:34:22;69427.59;;;23.43;29.59
11692;BME280;33659;42.672;23.354;2023-10-08T10:36:52;69456.06;;;23.72;29.63
11692;BME280;33659;42.672;23.354;2023-10-08T10:39:22;69454.66;;;23.78;29.84
11692;BME280;33659;42.672;23.354;2023-10-08T10:42:01;69463.63;;;23.76;30.16
11692;BME280;33659;42.672;23.354;2023-10-08T10:44:32;69479.44;;;23.91;30.49
11692;BME280;33659;42.672;23.354;2023-10-08T10:47:02;69481.06;;;23.93;30.56
11692;BME280;33659;42.672;23.354;2023-10-08T10:49:49;69487.63;;;23.99;31.10
11692;BME280;33659;42.672;23.354;2023-10-08T10:52:20;69479.19;;;24.01;31.18
11692;BME280;33659;42.672;23.354;2023-10-08T10:54:59;69565.69;;;24.05;30.56
11692;BME280;33659;42.672;23.354;2023-10-08T10:57:26;69508.34;;;24.18;30.35
11692;BME280;33659;42.672;23.354;2023-10-08T11:00:04;69507.28;;;24.17;30.59
11692;BME280;33659;42.672;23.354;2023-10-08T11:02:56;69496.34;;;24.07;30.69
11692;BME280;33659;42.672;23.354;2023-10-08T11:05:26;69505.16;;;24.18;30.55
11692;BME280;33659;42.672;23.354;2023-10-08T11:07:55;69576.63;;;24.15;30.41
11692;BME280;33659;42.672;23.354;2023-10-08T11:10:26;69578.81;;;24.17;30.53
11692;BME280;33659;42.672;23.354;2023-10-08T11:12:54;69522.56;;;24.31;30.17
11692;BME280;33659;42.672;23.354;2023-10-08T11:15:25;69609.41;;;24.46;29.83
11692;BME280;33659;42.672;23.354;2023-10-08T11:17:58;69530.53;;;24.49;29.97
11692;BME280;33659;42.672;23.354;2023-10-08T11:20:27;69553.69;;;24.61;29.81
11692;BME280;33659;42.672;23.354;2023-10-08T11:22:54;69563.84;;;24.80;29.50
11692;BME280;33659;42.672;23.354;2023-10-08T11:25:27;69570.69;;;24.79;29.84
11692;BME280;33659;42.672;23.354;2023-10-08T11:27:56;69573.25;;;24.76;29.58
11692;BME280;33659;42.672;23.354;2023-10-08T11:30:27;69555.31;;;24.62;29.69
11692;BME280;33659;42.672;23.354;2023-10-08T11:32:56;69563.50;;;24.70;29.65
11692;BME280;33659;42.672;23.354;2023-10-08T11:35:24;69554.25;;;24.61;29.90
11692;BME280;33659;42.672;23.354;2023-10-08T11:37:58;69540.50;;;24.46;30.24
11692;BME280;33659;42.672;23.354;2023-10-08T11:40:26;69557.03;;;23.99;30.97
11692;BME280;33659;42.672;23.354;2023-10-08T11:42:55;69468.06;;;23.83;31.60
11692;BME280;33659;42.672;23.354;2023-10-08T11:45:24;69465.78;;;23.78;31.61
11692;BME280;33659;42.672;23.354;2023-10-08T11:47:52;69453.78;;;23.67;31.68
11692;BME280;33659;42.672;23.354;2023-10-08T11:50:25;69515.44;;;23.58;31.96
11692;BME280;33659;42.672;23.354;2023-10-08T11:52:59;69448.31;;;23.62;32.08
11692;BME280;33659;42.672;23.354;2023-10-08T11:55:31;69522.63;;;23.67;32.13
11692;BME280;33659;42.672;23.354;2023-10-08T11:58:00;69514.34;;;23.57;32.42
11692;BME280;33659;42.672;23.354;2023-10-08T12:00:35;69434.13;;;23.49;32.52
11692;BME280;33659;42.672;23.354;2023-10-08T12:03:09;69417.84;;;23.36;32.63
11692;BME280;33659;42.672;23.354;2023-10-08T12:05:37;69483.28;;;23.31;33.07
11692;BME280;33659;42.672;23.354;2023-10-08T12:08:10;69417.84;;;23.36;32.90
11692;BME280;33659;42.672;23.354;2023-10-08T12:10:38;69532.47;;;23.76;32.52
11692;BME280;33659;42.672;23.354;2023-10-08T12:13:06;69580.50;;;24.21;32.12
11692;BME280;33659;42.672;23.354;2023-10-08T12:15:35;69545.41;;;24.50;31.60
11692;BME280;33659;42.672;23.354;2023-10-08T12:18:05;69556.41;;;24.63;31.67
11692;BME280;33659;42.672;23.354;2023-10-08T12:20:41;69648.59;;;24.77;31.39
11692;BME280;33659;42.672;23.354;2023-10-08T12:23:12;69672.72;;;25.02;30.80
11692;BME280;33659;42.672;23.354;2023-10-08T12:25:48;69607.75;;;25.11;30.82
11692;BME280;33659;42.672;23.354;2023-10-08T12:28:17;69662.97;;;24.96;31.09
11692;BME280;33659;42.672;23.354;2023-10-08T12:30:44;69601.19;;;25.05;31.05
11692;BME280;33659;42.672;23.354;2023-10-08T12:33:11;69677.75;;;25.09;30.92
11692;BME280;33659;42.672;23.354;2023-10-08T12:35:41;69578.88;;;24.87;31.08
11692;BME280;33659;42.672;23.354;2023-10-08T12:38:08;69514.91;;;24.24;31.78
11692;BME280;33659;42.672;23.354;2023-10-08T12:40:37;69489.78;;;24.01;32.12
11692;BME280;33659;42.672;23.354;2023-10-08T12:43:18;69473.44;;;23.86;32.67
11692;BME280;33659;42.672;23.354;2023-10-08T12:45:48;69486.00;;;23.97;32.69
11692;BME280;33659;42.672;23.354;2023-10-08T12:48:21;69578.81;;;24.17;32.49
11692;BME280;33659;42.672;23.354;2023-10-08T12:50:49;69502.28;;;24.27;31.88
11692;BME280;33659;42.672;23.354;2023-10-08T12:53:22;69502.44;;;24.15;32.42
11692;BME280;33659;42.672;23.354;2023-10-08T12:56:00;69597.47;;;24.37;32.18
11692;BME280;33659;42.672;23.354;2023-10-08T12:58:32;69534.59;;;24.43;31.92
11692;BME280;33659;42.672;23.354;2023-10-08T13:01:04;69493.25;;;24.09;32.13
11692;BME280;33659;42.672;23.354;2023-10-08T13:03:32;69591.44;;;24.31;32.35
11692;BME280;33659;42.672;23.354;2023-10-08T13:06:06;69520.38;;;24.29;32.33
11692;BME280;33659;42.672;23.354;2023-10-08T13:08:36;69530.22;;;24.39;32.13
11692;BME280;33659;42.672;23.354;2023-10-08T13:11:05;69544.88;;;24.50;31.71
11692;BME280;33659;42.672;23.354;2023-10-08T13:13:32;69557.50;;;24.64;31.31